Terminal Aerodrome Forecast
Issued by NWS Flagstaff, AZ

Home | Current Version | Previous Version | Text Only | Print | Product List | Glossary On
Versions: 1 2 3 4 5 6 7 8 9 10 11 12 13 14 15 16 17 18 19 20 21 22 23 24 25 26
000
FTUS45 KFGZ 151739
TAFFLG
TAF
KFLG 151739Z 1518/1618 22010G18KT P6SM FEW060 SCT250
     FM152000 25012G20KT P6SM VCTS SCT060CB BKN100
     FM160100 22007KT P6SM FEW250=

USA.gov is the U.S. government's official web portal to all federal, state and local government web resources and services.